Flight Track Log - Related Links

Times and Time Zones

All times are in EDT time to prevent confusion due to time zone crossing. See the AAL1491 flight status page for this flight to view local times or setup timezone preferences in your user account.

Time Position Orientation Groundspeed Altitude Reporting Facility
EDT Latitude Longitude Course Direction KTS MPH feet Rate Location/Type
Mon 03:42:50 PM 32.8833 -97.0500 301° West 165 190 1,600  Level Dallas / Fort Worth TRACON
Mon 03:43:50 PM 32.8333 -97.0667 196° South 210 242 2,800 1,600 Climbing Dallas / Fort Worth TRACON
Mon 03:44:50 PM 32.7667 -97.1000 203° Southwest 246 283 4,800 2,050 Climbing Dallas / Fort Worth TRACON
Mon 03:45:00 PM 32.8133 -97.3382 298° West  Level FlightAware Approximate
Mon 03:45:50 PM 32.7667 -97.1833 270° West 260 299 6,900  Level Dallas / Fort Worth TRACON
Mon 03:46:00 PM 32.8677 -97.4692 296° West  Level FlightAware Approximate
Mon 03:47:00 PM 32.9176 -97.6026 294° West  Level FlightAware Approximate
Mon 03:48:00 PM 32.9680 -97.7359 301° West  Level FlightAware Approximate
Mon 03:51:17 PM 32.9770 -97.7360 270° West 407 468 18,300  Level FlightAware ADS-B
Mon 03:51:57 PM 32.9940 -97.8150 284° West 407 468 19,000 933 Climbing FlightAware ADS-B
Mon 03:52:47 PM 33.0000 -97.8570 280° West 425 489 19,700 467 Climbing FlightAware ADS-B
Mon 03:53:27 PM 33.0140 -97.9350 282° West 425 489 19,700  Level FlightAware ADS-B
Mon 03:54:07 PM 33.0280 -98.0130 282° West 425 489 19,700  Level FlightAware ADS-B
Mon 03:54:47 PM 33.0420 -98.0910 282° West 425 489 19,700  Level FlightAware ADS-B
Mon 03:55:27 PM 33.0560 -98.1690 282° West 425 489 19,700 3,413 Level FlightAware ADS-B
Mon 03:57:27 PM 33.1820 -98.6130 289° West 481 554 28,800 3,523 Climbing FlightAware ADS-B
Mon 03:58:02 PM 33.2130 -98.6900 296° West 481 554 28,800 1,050 Level FlightAware ADS-B
Mon 03:58:47 PM 33.2580 -98.8020 296° West 483 556 30,200 988 Climbing FlightAware ADS-B
Mon 03:59:27 PM 33.2900 -98.8840 295° West 483 556 30,200  Level FlightAware ADS-B
Mon 04:00:07 PM 33.3230 -98.9670 295° West 483 556 30,200  Level FlightAware ADS-B
Mon 04:00:57 PM 33.3630 -99.0700 295° West 483 556 30,200  Level FlightAware ADS-B
Mon 04:01:37 PM 33.3950 -99.1520 295° West 483 556 30,200  Level FlightAware ADS-B
Mon 04:02:17 PM 33.4270 -99.2350 295° West 483 556 30,200  Level FlightAware ADS-B
Mon 04:02:57 PM 33.4590 -99.3170 295° West 483 556 30,200  Level FlightAware ADS-B
Mon 04:03:37 PM 33.4910 -99.4000 295° West 483 556 30,200  Level FlightAware ADS-B
Mon 04:04:17 PM 33.5230 -99.4820 295° West 483 556 30,200  Level FlightAware ADS-B
Mon 04:05:07 PM 33.5630 -99.5860 295° West 483 556 30,200  Level FlightAware ADS-B
Mon 04:05:47 PM 33.5950 -99.6680 295° West 483 556 30,200  Level FlightAware ADS-B
Mon 04:06:27 PM 33.6280 -99.7510 296° West 483 556 30,200  Level FlightAware ADS-B
Mon 04:07:07 PM 33.6600 -99.8340 295° West 483 556 30,200  Level FlightAware ADS-B
Mon 04:07:57 PM 33.7000 -99.9370 295° West 483 556 30,200 5,506 Level FlightAware ADS-B
Mon 04:08:32 PM 33.8181 -100.2025 295° West 468 539 38,000 5,506 Climbing Albuquerque Center
Mon 04:09:22 PM 33.8642 -100.3175 296° West 470 541 38,000  Level Fort Worth Center
Mon 04:10:23 PM 33.9192 -100.4594 295° West 470 541 38,000  Level Fort Worth Center
Mon 04:11:22 PM 33.9742 -100.6017 295° West 470 541 38,000  Level Fort Worth Center
Mon 04:12:22 PM 34.0289 -100.7417 295° West 470 541 38,000  Level Fort Worth Center
Mon 04:13:23 PM 34.0836 -100.8792 296° West 465 535 38,000  Level Fort Worth Center
Mon 04:14:22 PM 34.1358 -101.0242 294° West 465 535 38,000  Level Fort Worth Center
Mon 04:15:22 PM 34.1939 -101.1722 295° West 485 558 38,000  Level Fort Worth Center
Mon 04:17:49 PM 34.3247 -101.5217 294° West 479 551 38,000  Level Albuquerque Center
Mon 04:18:51 PM 34.3803 -101.6686 295° West 480 552 38,000  Level Albuquerque Center
Mon 04:19:53 PM 34.4339 -101.8150 294° West 477 549 38,000  Level Albuquerque Center
Mon 04:20:54 PM 34.4886 -101.9631 294° West 479 551 38,000  Level Albuquerque Center
Mon 04:21:56 PM 34.5428 -102.1097 294° West 476 548 38,000  Level Albuquerque Center
Mon 04:22:58 PM 34.5958 -102.2569 294° West 475 547 38,000  Level Albuquerque Center
Mon 04:24:00 PM 34.6611 -102.4336 294° West 476 548 38,000  Level Albuquerque Center
Mon 04:25:02 PM 34.7156 -102.5822 294° West 479 551 38,000  Level Albuquerque Center
Mon 04:26:03 PM 34.7714 -102.7378 294° West 481 554 38,000  Level Albuquerque Center
Mon 04:27:05 PM 34.8258 -102.8889 294° West 483 556 38,000  Level Albuquerque Center
Mon 04:28:07 PM 34.8806 -103.0406 294° West 485 558 38,000  Level Albuquerque Center
Mon 04:29:09 PM 34.9364 -103.1936 294° West 488 562 38,000  Level Albuquerque Center
Mon 04:30:11 PM 34.9903 -103.3464 293° West 487 560 38,000  Level Albuquerque Center
Mon 04:31:12 PM 35.0450 -103.4989 294° West 487 560 38,000  Level Albuquerque Center
Mon 04:32:14 PM 35.0994 -103.6511 294° West 487 560 38,000  Level Albuquerque Center
Mon 04:33:16 PM 35.1617 -103.8286 293° West 486 559 38,000  Level Albuquerque Center
Mon 04:34:18 PM 35.2111 -103.9706 293° West 484 557 38,000  Level Albuquerque Center
Mon 04:40:07 PM 35.5130 -104.8530 293° West 477 549 38,000  Level FlightAware ADS-B
Mon 04:40:52 PM 35.5470 -104.9570 292° West 477 549 38,000  Level FlightAware ADS-B
Mon 04:41:32 PM 35.5750 -105.0420 292° West 477 549 38,000  Level FlightAware ADS-B
Mon 04:42:12 PM 35.6030 -105.1280 292° West 477 549 38,000  Level FlightAware ADS-B
Mon 04:42:52 PM 35.6320 -105.2130 293° West 477 549 38,000  Level FlightAware ADS-B
Mon 04:43:32 PM 35.6600 -105.2990 292° West 477 549 38,000  Level FlightAware ADS-B
Mon 04:44:22 PM 35.6950 -105.4060 292° West 477 549 38,000  Level FlightAware ADS-B
Mon 04:45:02 PM 35.7230 -105.4920 292° West 477 549 38,000  Level FlightAware ADS-B
Mon 04:45:42 PM 35.7510 -105.5780 292° West 477 549 38,000  Level FlightAware ADS-B
Mon 04:46:17 PM 35.8220 -105.7810 293° West 474 545 38,000  Level FlightAware ADS-B
Mon 04:47:07 PM 35.8630 -105.9050 292° West 472 543 38,000  Level FlightAware ADS-B
Mon 04:47:57 PM 35.9050 -106.0360 292° West 470 541 38,000  Level FlightAware ADS-B
Mon 04:48:47 PM 35.9430 -106.1530 292° West 469 540 38,000  Level FlightAware ADS-B
Mon 04:49:42 PM 35.9870 -106.2890 292° West 469 540 38,000  Level FlightAware ADS-B
Mon 04:50:22 PM 36.0210 -106.3960 291° West 467 537 38,000  Level FlightAware ADS-B
Mon 04:50:57 PM 36.0490 -106.4820 292° West 467 537 38,000  Level FlightAware ADS-B
Mon 04:51:42 PM 36.0850 -106.5930 292° West 466 536 38,000  Level FlightAware ADS-B
Mon 04:52:32 PM 36.1240 -106.7180 291° West 465 535 38,000  Level FlightAware ADS-B
Mon 04:53:22 PM 36.1600 -106.8320 291° West 464 534 38,000  Level FlightAware ADS-B
Mon 04:53:52 PM 36.1800 -106.8960 291° West 464 534 38,000  Level FlightAware ADS-B
Mon 04:54:32 PM 36.2060 -106.9800 291° West 464 534 38,000  Level FlightAware ADS-B
Mon 04:55:17 PM 36.2520 -107.1220 292° West 462 532 38,000  Level FlightAware ADS-B
Mon 04:56:02 PM 36.2840 -107.2240 291° West 462 532 38,000  Level FlightAware ADS-B
Mon 04:56:42 PM 36.3100 -107.3080 291° West 462 532 38,000  Level FlightAware ADS-B
Mon 04:57:37 PM 36.3580 -107.4640 291° West 465 535 38,000  Level FlightAware ADS-B
Mon 04:58:17 PM 36.3840 -107.5490 291° West 465 535 38,000  Level FlightAware ADS-B
Mon 04:59:07 PM 36.4170 -107.6550 291° West 465 535 38,000  Level FlightAware ADS-B
Mon 04:59:47 PM 36.4430 -107.7400 291° West 465 535 38,000  Level FlightAware ADS-B
Mon 05:00:27 PM 36.4700 -107.8250 292° West 465 535 38,000  Level FlightAware ADS-B
Mon 05:01:07 PM 36.4960 -107.9100 291° West 465 535 38,000  Level FlightAware ADS-B
Mon 05:01:47 PM 36.5220 -107.9940 291° West 465 535 38,000  Level FlightAware ADS-B
Mon 05:02:32 PM 36.5850 -108.2060 290° West 463 533 38,000  Level FlightAware ADS-B
Mon 05:03:12 PM 36.6150 -108.3050 291° West 463 533 38,000  Level FlightAware ADS-B
Mon 05:03:57 PM 36.6460 -108.4100 290° West 462 532 38,000  Level FlightAware ADS-B
Mon 05:04:42 PM 36.6800 -108.5240 290° West 464 534 38,000  Level FlightAware ADS-B
Mon 05:05:17 PM 36.7060 -108.6100 291° West 465 535 38,000  Level FlightAware ADS-B
Mon 05:06:02 PM 36.7400 -108.7270 290° West 463 533 38,000  Level FlightAware ADS-B
Mon 05:06:42 PM 36.7670 -108.8180 290° West 462 532 38,000  Level FlightAware ADS-B
Mon 05:07:27 PM 36.7980 -108.9220 290° West 462 532 38,000  Level FlightAware ADS-B
Mon 05:08:12 PM 36.8330 -109.0430 290° West 457 526 38,000  Level FlightAware ADS-B
Mon 05:08:47 PM 36.8590 -109.1300 291° West 457 526 38,000  Level FlightAware ADS-B
Mon 05:10:47 PM 36.9440 -109.4240 290° West 457 526 38,000  Level FlightAware ADS-B
Mon 05:11:27 PM 36.9670 -109.5090 289° West 457 526 38,000  Level FlightAware ADS-B
Mon 05:12:07 PM 36.9900 -109.5940 289° West 457 526 38,000  Level FlightAware ADS-B
Mon 05:12:47 PM 37.0140 -109.6790 289° West 457 526 38,000  Level FlightAware ADS-B
Mon 05:13:27 PM 37.0370 -109.7640 289° West 457 526 38,000  Level FlightAware ADS-B
Mon 05:14:07 PM 37.0610 -109.8500 289° West 457 526 38,000  Level FlightAware ADS-B
Mon 05:14:57 PM 37.0900 -109.9560 289° West 457 526 38,000  Level FlightAware ADS-B
Mon 05:15:37 PM 37.1130 -110.0410 289° West 457 526 38,000  Level FlightAware ADS-B
Mon 05:16:17 PM 37.1370 -110.1270 289° West 457 526 38,000  Level FlightAware ADS-B
Mon 05:16:57 PM 37.1600 -110.2120 289° West 457 526 38,000  Level FlightAware ADS-B
Mon 05:17:37 PM 37.1830 -110.2970 289° West 457 526 38,000  Level FlightAware ADS-B
Mon 05:18:27 PM 37.2130 -110.4040 289° West 457 526 38,000  Level FlightAware ADS-B
Mon 05:19:07 PM 37.2360 -110.4890 289° West 457 526 38,000  Level FlightAware ADS-B
Mon 05:19:47 PM 37.2590 -110.5750 289° West 457 526 38,000  Level FlightAware ADS-B
Mon 05:20:29 PM 37.3572 -110.8936 289° West 462 532 38,000  Level Denver Center
Mon 05:21:30 PM 37.3986 -111.0450 289° West 460 529 38,000  Level Denver Center
Mon 05:22:32 PM 37.4397 -111.1958 289° West 457 526 38,000  Level Denver Center
Mon 05:23:34 PM 37.4797 -111.3464 289° West 456 525 38,000  Level Denver Center
Mon 05:24:36 PM 37.5214 -111.4969 289° West 456 525 38,000  Level Denver Center
Mon 05:25:38 PM 37.5606 -111.6486 288° West 457 526 38,000  Level Denver Center
Mon 05:26:40 PM 37.6089 -111.8292 289° West 456 525 38,000  Level Denver Center
Mon 05:27:42 PM 37.6492 -111.9794 289° West 455 524 38,000  Level Denver Center
Mon 05:28:02 PM 37.6558 -112.0100 285° West 455 524 38,000  Level Salt Lake Center
Mon 05:29:04 PM 37.7036 -112.1903 289° West 453 521 38,000  Level Salt Lake Center
Mon 05:30:05 PM 37.7422 -112.3392 288° West 451 519 38,000  Level Salt Lake Center
Mon 05:31:07 PM 37.7808 -112.4883 288° West 450 518 38,000  Level Salt Lake Center
Mon 05:32:09 PM 37.8192 -112.6378 288° West 451 519 38,000  Level Salt Lake Center
Mon 05:33:10 PM 37.8569 -112.7869 288° West 452 520 38,000  Level Salt Lake Center
Mon 05:34:12 PM 37.8947 -112.9375 288° West 455 524 38,000  Level Salt Lake Center
Mon 05:35:14 PM 37.9389 -113.1161 287° West 450 518 38,000  Level Salt Lake Center
Mon 05:36:16 PM 37.9758 -113.2658 287° West 449 517 38,000  Level Salt Lake Center
Mon 05:37:17 PM 38.0128 -113.4150 287° West 447 514 38,000  Level Salt Lake Center
Mon 05:43:22 PM 38.2370 -114.3390 287° West 440 506 38,000  Level FlightAware ADS-B
Mon 05:43:57 PM 38.2540 -114.4150 286° West 440 506 38,000  Level FlightAware ADS-B
Mon 05:44:47 PM 38.2780 -114.5210 286° West 440 506 38,000  Level FlightAware ADS-B
Mon 05:45:27 PM 38.2970 -114.6060 286° West 440 506 38,000  Level FlightAware ADS-B
Mon 05:46:07 PM 38.3160 -114.6900 286° West 440 506 38,000  Level FlightAware ADS-B
Mon 05:46:47 PM 38.3350 -114.7750 286° West 440 506 38,000  Level FlightAware ADS-B
Mon 05:47:37 PM 38.3590 -114.8810 286° West 440 506 38,000  Level FlightAware ADS-B
Mon 05:48:17 PM 38.3780 -114.9660 286° West 440 506 38,000  Level FlightAware ADS-B
Mon 05:48:57 PM 38.3970 -115.0510 286° West 440 506 38,000  Level FlightAware ADS-B
Mon 05:49:37 PM 38.4160 -115.1360 286° West 440 506 38,000  Level FlightAware ADS-B
Mon 05:50:17 PM 38.4350 -115.2210 286° West 440 506 38,000  Level FlightAware ADS-B
Mon 05:51:07 PM 38.4590 -115.3270 286° West 440 506 38,000  Level FlightAware ADS-B
Mon 05:51:47 PM 38.4780 -115.4120 286° West 440 506 38,000  Level FlightAware ADS-B
Mon 05:52:27 PM 38.4970 -115.4970 286° West 440 506 38,000  Level FlightAware ADS-B
Mon 05:53:07 PM 38.5160 -115.5820 286° West 440 506 38,000  Level FlightAware ADS-B
Mon 05:53:31 PM 38.3911 -115.8708 286° West 432 497 38,000  Level Oakland Center
Mon 05:54:32 PM 38.4044 -116.0211 277° West 431 496 38,000  Level Oakland Center
Mon 05:55:33 PM 38.4169 -116.1719 276° West 428 493 38,000  Level Oakland Center
Mon 05:56:35 PM 38.3886 -116.3150 256° West 420 483 38,000  Level Oakland Center
Mon 05:57:36 PM 38.3522 -116.4600 252° West 425 489 38,000  Level Oakland Center
Mon 05:58:37 PM 38.3150 -116.6025 252° West 426 490 38,000  Level Oakland Center
Mon 05:59:39 PM 38.2700 -116.7739 252° West 426 490 38,000  Level Oakland Center
Mon 06:00:40 PM 38.2336 -116.9153 252° West 423 487 38,000  Level Oakland Center
Mon 06:00:55 PM 38.2261 -116.9436 251° West 422 486 38,000  Level Salt Lake Center
Mon 06:01:57 PM 38.1897 -117.0825 252° West 418 481 38,000  Level Salt Lake Center
Mon 06:02:42 PM 38.1561 -117.2025 250° West 431 496 38,000  Level Oakland Center
Mon 06:03:44 PM 38.1186 -117.3431 251° West 428 493 38,000  Level Oakland Center
Mon 06:04:45 PM 38.0781 -117.4958 251° West 420 483 38,000  Level Oakland Center
Mon 06:05:46 PM 38.0397 -117.6350 251° West 419 482 38,000  Level Oakland Center
Mon 06:06:47 PM 38.0022 -117.7747 251° West 418 481 38,000  Level Oakland Center
Mon 06:12:17 PM 37.9150 -118.5900 251° West 424 488 38,000  Level FlightAware ADS-B
Mon 06:12:57 PM 37.9040 -118.6880 262° West 422 486 38,000  Level FlightAware ADS-B
Mon 06:13:42 PM 37.8920 -118.7870 261° West 423 487 38,000  Level FlightAware ADS-B
Mon 06:14:22 PM 37.8820 -118.8700 261° West 423 487 38,000  Level FlightAware ADS-B
Mon 06:15:07 PM 37.8690 -119.0020 263° West 419 482 38,000  Level FlightAware ADS-B
Mon 06:15:52 PM 37.8560 -119.1150 262° West 421 484 38,000  Level FlightAware ADS-B
Mon 06:16:32 PM 37.8450 -119.2120 262° West 418 481 38,000  Level FlightAware ADS-B
Mon 06:17:12 PM 37.8330 -119.3070 261° West 417 480 38,000  Level FlightAware ADS-B
Mon 06:17:57 PM 37.8200 -119.4170 262° West 417 480 38,000 -212 Level FlightAware ADS-B
Mon 06:18:37 PM 37.8090 -119.5150 262° West 420 483 37,700 -750 Descending FlightAware ADS-B
Mon 06:19:17 PM 37.7970 -119.6130 261° West 423 487 37,000 -988 Descending FlightAware ADS-B
Mon 06:20:02 PM 37.7840 -119.7220 261° West 425 489 36,300 -918 Descending FlightAware ADS-B
Mon 06:20:42 PM 37.7720 -119.8180 261° West 424 488 35,700 -918 Descending FlightAware ADS-B
Mon 06:21:27 PM 37.7580 -119.9320 261° West 423 487 35,000 -988 Descending FlightAware ADS-B
Mon 06:22:07 PM 37.7470 -120.0240 261° West 422 486 34,300 -706 Descending FlightAware ADS-B
Mon 06:22:52 PM 37.7320 -120.1390 261° West 425 489 34,000 -1,271 Descending FlightAware ADS-B
Mon 06:23:32 PM 37.7210 -120.2350 262° West 434 499 32,500 -2,550 Descending FlightAware ADS-B
Mon 06:24:12 PM 37.7090 -120.3320 261° West 432 497 30,600 -2,612 Descending FlightAware ADS-B
Mon 06:24:57 PM 37.6940 -120.4450 261° West 421 484 28,800 -2,400 Descending FlightAware ADS-B
Mon 06:25:37 PM 37.6810 -120.5440 261° West 409 471 27,200 -2,188 Descending FlightAware ADS-B
Mon 06:26:22 PM 37.6690 -120.6410 261° West 397 457 25,700 -2,118 Descending FlightAware ADS-B
Mon 06:27:02 PM 37.6560 -120.7370 260° West 386 444 24,200 -2,175 Descending FlightAware ADS-B
Mon 06:27:42 PM 37.6450 -120.8220 261° West 374 430 22,800 -1,976 Descending FlightAware ADS-B
Mon 06:28:27 PM 37.6330 -120.9150 261° West 365 420 21,400 -1,976 Descending FlightAware ADS-B
Mon 06:29:07 PM 37.6220 -121.0010 261° West 367 422 20,000 -2,025 Descending FlightAware ADS-B
Mon 06:29:47 PM 37.6130 -121.0870 263° West 364 419 18,700 -1,976 Descending FlightAware ADS-B
Mon 06:30:32 PM 37.6030 -121.1790 262° West 357 411 17,200 -2,118 Descending FlightAware ADS-B
Mon 06:31:12 PM 37.5930 -121.2620 261° West 351 404 15,700 -2,175 Descending FlightAware ADS-B
Mon 06:31:52 PM 37.5840 -121.3410 262° West 345 397 14,300 -2,000 Descending FlightAware ADS-B
Mon 06:32:42 PM 37.5720 -121.4410 261° West 343 395 12,700 -2,000 Descending FlightAware ADS-B
Mon 06:33:22 PM 37.5600 -121.5170 259° West 340 391 11,300 -1,440 Descending FlightAware ADS-B
Mon 06:33:57 PM 37.5460 -121.5840 255° West 323 372 10,900 -300 Descending FlightAware ADS-B
Mon 06:34:42 PM 37.5300 -121.6570 255° West 289 333 10,900 -565 Level FlightAware ADS-B
Mon 06:35:22 PM 37.5160 -121.7210 255° West 268 308 10,100 -1,286 Descending FlightAware ADS-B
Mon 06:35:52 PM 37.5060 -121.7650 254° West 267 307 9,400 -1,500 Descending FlightAware ADS-B
Mon 06:36:22 PM 37.4970 -121.8120 256° West 268 308 8,600 -1,400 Descending FlightAware ADS-B
Mon 06:36:52 PM 37.4870 -121.8560 254° West 264 304 8,000 -873 Descending FlightAware ADS-B
Mon 06:37:17 PM 37.4860 -121.8960 268° West 271 312 7,800 -764 Descending FlightAware ADS-B
Mon 06:37:47 PM 37.4950 -121.9430 284° West 266 306 7,300 -1,200 Descending FlightAware ADS-B
Mon 06:38:17 PM 37.5030 -121.9860 283° West 264 304 6,600 -1,440 Descending FlightAware ADS-B
Mon 06:38:37 PM 37.5100 -122.0160 286° West 264 304 6,100 -1,320 Descending FlightAware ADS-B
Mon 06:39:07 PM 37.5240 -122.0580 293° West 253 291 5,500 -1,366 Descending FlightAware ADS-B
Mon 06:41:02 PM 37.5690 -122.2040 291° West 242 278 2,800 -1,409 Descending FlightAware ADS-B

Login

Don't have an account? Register now (free) for customized features, flight alerts, and more!